Thunder radar more information blitzortung!


Radar de pluja more information rain snow radar


Visita la nostra xarxa de llocs de meteo:

Template documentation
and downloads

And another site



No particular awareness of the weather is required.    There are no Weather-warnings

Pagina Historial Weather Underground text

Diari Resum May 25, 2016 Unitats:  Mètric    Imperial   Tant
« Previous Dia
SegĂźent Dia »
Diari Setmana Mensual Anual Personalitzada
  Maxima: Minima: Media:
Temperatura: 25.3 °C 15.2 °C 20.4 °C
Punt de rosada: 14.1 °C 10.4 °C 12.3 °C
Humitat: 79 % 47 % 61 %
Wind Speed: 12.9 km/h 0.0 km/h 4.9 km/h
RĂ fegues de vent: 17.7 km/h - -
Vent:- - SE
Pression baro: 1013.8 hPa 1010.7 hPa -
Precipitacions: 0.0 mm    
Historical Graphs
 
 
Dades de taula per May 25, 2016
Temps Temperatura Punt de rosada Pression baro Vent Wind Speed RĂ fegues de vent Humitat Rainfall Rate (Hourly)
00:00 15.4 °C 10.4 °C 1012.8 hPa WSW 1.9 km/h 1.9 km/h 72 % 0.0 mm
00:05 15.4 °C 10.4 °C 1012.8 hPa WSW 3.7 km/h 3.7 km/h 72 % 0.0 mm
00:10 15.4 °C 10.6 °C 1012.8 hPa Calm     73 % 0.0 mm
00:15 15.3 °C 10.5 °C 1012.8 hPa WSW 2.3 km/h   73 % 0.0 mm
00:20 15.3 °C 10.5 °C 1012.8 hPa SW 3.7 km/h 3.7 km/h 73 % 0.0 mm
00:25 15.2 °C 10.6 °C 1012.8 hPa SW 1.9 km/h 1.9 km/h 74 % 0.0 mm
06:55 23.8 °C 13.9 °C 1011.7 hPa Calm   6.4 km/h 54 % 0.0 mm
07:05 23.6 °C 13.7 °C 1011.7 hPa SSE 4.8 km/h 4.8 km/h 54 % 0.0 mm
07:15 23.6 °C 13.7 °C 1011.7 hPa SE 8.0 km/h 9.7 km/h 54 % 0.0 mm
07:25 24.0 °C 13.8 °C 1010.7 hPa Calm   12.9 km/h 53 % 0.0 mm
07:35 24.6 °C 14.1 °C 1010.7 hPa SE 1.6 km/h 9.7 km/h 52 % 0.0 mm
07:45 23.9 °C 13.7 °C 1011.7 hPa SE 9.7 km/h 9.7 km/h 53 % 0.0 mm
07:55 23.5 °C 13.4 °C 1011.7 hPa ESE 9.7 km/h 12.9 km/h 53 % 0.0 mm
08:05 23.8 °C 13.3 °C 1011.7 hPa East 9.7 km/h 12.9 km/h 52 % 0.0 mm
08:15 23.6 °C 13.4 °C 1011.7 hPa East 11.3 km/h 14.5 km/h 53 % 0.0 mm
08:25 23.6 °C 13.7 °C 1011.7 hPa East 9.7 km/h 17.7 km/h 54 % 0.0 mm
08:35 23.7 °C 14.1 °C 1011.7 hPa East 8.0 km/h 16.1 km/h 55 % 0.0 mm
08:45 23.4 °C 13.6 °C 1011.7 hPa East 9.7 km/h 9.7 km/h 54 % 0.0 mm
08:55 23.5 °C 13.4 °C 1011.7 hPa ENE 11.3 km/h 12.9 km/h 53 % 0.0 mm
09:05 23.2 °C 12.8 °C 1011.7 hPa East 12.9 km/h 14.5 km/h 52 % 0.0 mm
09:15 23.2 °C 12.8 °C 1011.7 hPa East 11.3 km/h 11.3 km/h 52 % 0.0 mm
09:25 23.5 °C 12.8 °C 1011.7 hPa East 3.2 km/h 11.3 km/h 51 % 0.0 mm
09:35 24.1 °C 13.0 °C 1011.7 hPa SE 4.8 km/h 12.9 km/h 50 % 0.0 mm
09:45 24.1 °C 12.7 °C 1011.7 hPa SSW 1.6 km/h 11.3 km/h 49 % 0.0 mm
09:55 24.5 °C 12.8 °C 1012.8 hPa SW 3.2 km/h 4.8 km/h 48 % 0.0 mm
10:05 24.6 °C 12.8 °C 1011.7 hPa SW 3.2 km/h 6.4 km/h 48 % 0.0 mm
10:15 24.8 °C 13.1 °C 1011.7 hPa SSW 3.2 km/h 3.2 km/h 48 % 0.0 mm
10:25 24.8 °C 12.7 °C 1011.7 hPa SW 3.2 km/h 8.0 km/h 47 % 0.0 mm
10:35 24.9 °C 12.8 °C 1011.7 hPa SSW 4.8 km/h 8.0 km/h 47 % 0.0 mm
10:45 24.4 °C 12.3 °C 1011.7 hPa South 1.6 km/h 6.4 km/h 47 % 0.0 mm
10:55 24.1 °C 12.4 °C 1011.7 hPa South 3.2 km/h 6.4 km/h 48 % 0.0 mm
11:05 23.7 °C 12.1 °C 1011.7 hPa East 4.8 km/h 9.7 km/h 48 % 0.0 mm
11:15 24.1 °C 12.7 °C 1011.7 hPa East 3.2 km/h 9.7 km/h 49 % 0.0 mm
11:25 23.9 °C 12.6 °C 1010.7 hPa ESE 8.0 km/h 12.9 km/h 49 % 0.0 mm
11:35 24.5 °C 13.1 °C 1011.7 hPa ESE 4.8 km/h 6.4 km/h 49 % 0.0 mm
11:45 24.2 °C 12.8 °C 1011.7 hPa East 4.8 km/h 12.9 km/h 49 % 0.0 mm
11:55 24.4 °C 13.0 °C 1011.7 hPa East 3.2 km/h 6.4 km/h 49 % 0.0 mm
12:05 25.3 °C 13.2 °C 1010.7 hPa SSW 1.6 km/h 3.2 km/h 47 % 0.0 mm
12:15 24.4 °C 12.7 °C 1010.7 hPa SSW 4.8 km/h 8.0 km/h 48 % 0.0 mm
12:25 23.7 °C 12.3 °C 1010.7 hPa East 4.8 km/h 12.9 km/h 49 % 0.0 mm
12:35 23.9 °C 12.6 °C 1011.7 hPa East 8.0 km/h 9.7 km/h 49 % 0.0 mm
12:45 23.5 °C 12.5 °C 1011.7 hPa ESE 1.6 km/h 12.9 km/h 50 % 0.0 mm
12:55 23.5 °C 12.5 °C 1011.7 hPa ESE 8.0 km/h 9.7 km/h 50 % 0.0 mm
13:05 23.2 °C 12.2 °C 1011.7 hPa East 4.8 km/h 9.7 km/h 50 % 0.0 mm
13:15 22.9 °C 12.2 °C 1011.7 hPa East 4.8 km/h 9.7 km/h 51 % 0.0 mm
13:25 22.8 °C 12.1 °C 1011.7 hPa East 3.2 km/h 8.0 km/h 51 % 0.0 mm
13:35 23.0 °C 12.0 °C 1011.7 hPa East 1.6 km/h 3.2 km/h 50 % 0.0 mm
13:45 23.0 °C 12.0 °C 1011.7 hPa ESE 3.2 km/h 6.4 km/h 50 % 0.0 mm
13:55 22.9 °C 12.5 °C 1011.7 hPa South 8.0 km/h 8.0 km/h 52 % 0.0 mm
14:05 22.6 °C 12.6 °C 1011.7 hPa SW 4.8 km/h 6.4 km/h 53 % 0.0 mm
19:13 22.4 °C 12.3 °C 1011.7 hPa SW 5.6 km/h 5.6 km/h 53 % 0.0 mm
19:18 22.5 °C 12.4 °C 1011.7 hPa SSW 3.7 km/h 5.0 km/h 53 % 0.0 mm
19:23 22.2 °C 12.2 °C 1010.7 hPa SW 5.6 km/h 5.6 km/h 53 % 0.0 mm
19:28 22.0 °C 12.0 °C 1010.7 hPa WSW 9.3 km/h 9.3 km/h 53 % 0.0 mm
19:33 21.9 °C 11.9 °C 1010.7 hPa SSW 7.4 km/h 7.4 km/h 53 % 0.0 mm
19:35 17.4 °C 12.1 °C 1013.8 hPa East 3.2 km/h 6.4 km/h 71 % 0.0 mm
19:38 21.7 °C 11.7 °C 1010.7 hPa WSW 7.4 km/h 7.4 km/h 53 % 0.0 mm
19:43 21.6 °C 11.9 °C 1010.7 hPa SSW 7.4 km/h 7.4 km/h 54 % 0.0 mm
19:45 17.3 °C 12.0 °C 1013.8 hPa East 3.2 km/h 6.4 km/h 71 % 0.0 mm
19:48 21.6 °C 11.9 °C 1010.7 hPa SW 5.8 km/h 5.8 km/h 54 % 0.0 mm
19:53 21.5 °C 11.8 °C 1011.7 hPa SW 4.2 km/h 4.2 km/h 54 % 0.0 mm
19:55 17.2 °C 12.1 °C 1013.8 hPa East 8.0 km/h 8.0 km/h 72 % 0.0 mm
20:05 17.1 °C 12.0 °C 1013.8 hPa ESE 4.8 km/h 4.8 km/h 72 % 0.0 mm
20:13 21.2 °C 11.8 °C 1011.7 hPa WSW 5.6 km/h 5.6 km/h 55 % 0.0 mm
20:15 17.1 °C 12.2 °C 1013.8 hPa East 3.2 km/h 8.0 km/h 73 % 0.0 mm
20:18 21.1 °C 11.7 °C 1011.7 hPa SW 5.6 km/h 5.6 km/h 55 % 0.0 mm
20:23 21.0 °C 11.9 °C 1011.7 hPa SW 3.7 km/h 3.7 km/h 56 % 0.0 mm
20:25 17.0 °C 12.3 °C 1013.8 hPa East 1.6 km/h 4.8 km/h 74 % 0.0 mm
20:28 21.0 °C 11.9 °C 1011.7 hPa SW 3.5 km/h 3.5 km/h 56 % 0.0 mm
20:33 20.9 °C 11.8 °C 1011.7 hPa SW 3.7 km/h 3.7 km/h 56 % 0.0 mm
20:35 16.9 °C 12.4 °C 1013.8 hPa East 3.2 km/h 4.8 km/h 75 % 0.0 mm
20:38 20.9 °C 11.8 °C 1011.7 hPa SW 3.7 km/h 3.7 km/h 56 % 0.0 mm
20:43 20.8 °C 11.7 °C 1011.7 hPa SW 1.9 km/h   56 % 0.0 mm
20:45 16.9 °C 12.7 °C 1013.8 hPa East 3.2 km/h 4.8 km/h 76 % 0.0 mm
20:48 20.8 °C 11.7 °C 1011.7 hPa WSW 3.2 km/h   56 % 0.0 mm
20:53 20.7 °C 11.6 °C 1011.7 hPa WSW 1.9 km/h   56 % 0.0 mm
20:55 16.9 °C 12.7 °C 1013.8 hPa East 8.0 km/h 8.0 km/h 76 % 0.0 mm
20:58 20.7 °C 11.9 °C 1011.7 hPa Calm     57 % 0.0 mm
21:03 20.6 °C 11.8 °C 1011.7 hPa SSE 3.2 km/h   57 % 0.0 mm
21:05 16.8 °C 12.7 °C 1013.8 hPa ESE 4.8 km/h 6.4 km/h 77 % 0.0 mm
21:08 20.5 °C 11.7 °C 1010.7 hPa WSW 1.9 km/h 1.9 km/h 57 % 0.0 mm
21:13 20.5 °C 11.7 °C 1010.7 hPa SW 1.9 km/h 1.9 km/h 57 % 0.0 mm
21:15 16.7 °C 12.7 °C 1013.8 hPa East 3.2 km/h 4.8 km/h 77 % 0.0 mm
21:18 20.4 °C 11.6 °C 1010.7 hPa SW 1.9 km/h   57 % 0.0 mm
21:23 20.2 °C 11.4 °C 1011.7 hPa SW 3.7 km/h 3.7 km/h 57 % 0.0 mm
21:25 16.7 °C 12.8 °C 1013.8 hPa ENE 4.8 km/h 6.4 km/h 78 % 0.0 mm
21:28 20.1 °C 11.6 °C 1011.7 hPa Calm     58 % 0.0 mm
21:33 20.0 °C 11.5 °C 1011.7 hPa WSW 1.9 km/h   58 % 0.0 mm
21:35 16.7 °C 12.8 °C 1013.8 hPa East 3.2 km/h 6.4 km/h 78 % 0.0 mm
21:38 20.0 °C 11.2 °C 1011.7 hPa West 3.7 km/h 3.7 km/h 57 % 0.0 mm
21:43 19.9 °C 11.4 °C 1011.7 hPa WSW 5.3 km/h 5.3 km/h 58 % 0.0 mm
21:45 16.7 °C 12.8 °C 1013.8 hPa East 3.2 km/h 6.4 km/h 78 % 0.0 mm
21:48 19.8 °C 11.6 °C 1011.7 hPa Calm     59 % 0.0 mm
21:53 19.8 °C 11.6 °C 1011.7 hPa Calm     59 % 0.0 mm
21:55 16.7 °C 13.1 °C 1013.8 hPa ESE 3.2 km/h 6.4 km/h 79 % 0.0 mm
21:58 19.8 °C 11.6 °C 1011.7 hPa Calm     59 % 0.0 mm
22:03 19.8 °C 11.6 °C 1011.7 hPa NE 3.2 km/h 3.2 km/h 59 % 0.0 mm
22:05 16.8 °C 13.1 °C 1013.8 hPa East 4.8 km/h 8.0 km/h 79 % 0.0 mm
22:08 19.8 °C 11.6 °C 1011.7 hPa ENE 5.6 km/h 5.6 km/h 59 % 0.0 mm
22:13 19.8 °C 11.6 °C 1011.7 hPa East 5.6 km/h 5.6 km/h 59 % 0.0 mm
22:15 16.8 °C 13.1 °C 1013.8 hPa East 3.2 km/h 3.2 km/h 79 % 0.0 mm
22:18 19.6 °C 11.6 °C 1012.8 hPa NE 9.3 km/h 9.3 km/h 60 % 0.0 mm
22:23 19.5 °C 11.5 °C 1012.8 hPa NE 9.3 km/h 9.3 km/h 60 % 0.0 mm
22:25 16.8 °C 13.1 °C 1013.8 hPa ESE 8.0 km/h 16.1 km/h 79 % 0.0 mm
22:29 19.3 °C 11.3 °C 1012.8 hPa NNE 9.3 km/h 9.3 km/h 60 % 0.0 mm
22:35 16.7 °C 13.1 °C 1013.8 hPa ESE 8.0 km/h 8.0 km/h 79 % 0.0 mm
22:39 19.0 °C 11.6 °C 1012.8 hPa ESE 9.3 km/h 9.3 km/h 62 % 0.0 mm
22:44 18.9 °C 11.7 °C 1012.8 hPa ENE 5.6 km/h 5.6 km/h 63 % 0.0 mm
22:45 16.7 °C 13.1 °C 1013.8 hPa ESE 8.0 km/h 8.0 km/h 79 % 0.0 mm
22:49 18.8 °C 11.6 °C 1013.8 hPa ENE 7.4 km/h 7.4 km/h 63 % 0.0 mm
22:54 18.6 °C 11.7 °C 1013.8 hPa ENE 11.1 km/h 11.1 km/h 64 % 0.0 mm
22:55 16.7 °C 13.1 °C 1013.8 hPa East 4.8 km/h 6.4 km/h 79 % 0.0 mm
22:59 18.5 °C 11.8 °C 1013.8 hPa East 9.3 km/h 9.3 km/h 65 % 0.0 mm
23:04 18.4 °C 11.9 °C 1013.8 hPa East 9.3 km/h 9.3 km/h 66 % 0.0 mm
23:05 16.7 °C 13.1 °C 1012.8 hPa ESE 3.2 km/h 6.4 km/h 79 % 0.0 mm
23:09 18.4 °C 11.9 °C 1013.8 hPa NE 5.6 km/h 5.6 km/h 66 % 0.0 mm
23:14 18.3 °C 11.8 °C 1013.8 hPa East 5.6 km/h 5.6 km/h 66 % 0.0 mm
23:15 16.7 °C 13.1 °C 1012.8 hPa East 3.2 km/h 6.4 km/h 79 % 0.0 mm
23:19 18.2 °C 11.9 °C 1013.8 hPa ENE 9.3 km/h 9.3 km/h 67 % 0.0 mm
23:24 18.2 °C 11.9 °C 1013.8 hPa ENE 5.8 km/h 5.8 km/h 67 % 0.0 mm
23:25 16.7 °C 13.1 °C 1013.8 hPa East 3.2 km/h 6.4 km/h 79 % 0.0 mm
23:29 18.1 °C 11.9 °C 1013.8 hPa ESE 9.3 km/h 9.3 km/h 67 % 0.0 mm
23:34 18.1 °C 11.9 °C 1013.8 hPa East 5.6 km/h 5.6 km/h 67 % 0.0 mm
23:35 16.7 °C 13.1 °C 1013.8 hPa ENE 3.2 km/h 4.8 km/h 79 % 0.0 mm
23:39 18.0 °C 11.8 °C 1013.8 hPa ENE 5.6 km/h 5.6 km/h 67 % 0.0 mm
23:44 18.0 °C 12.0 °C 1013.8 hPa ENE 5.6 km/h 5.6 km/h 68 % 0.0 mm
23:45 16.7 °C 13.1 °C 1013.8 hPa ENE 3.2 km/h 4.8 km/h 79 % 0.0 mm
23:49 17.9 °C 11.9 °C 1013.8 hPa NNE 3.7 km/h 3.9 km/h 68 % 0.0 mm
23:54 17.8 °C 11.8 °C 1013.8 hPa East 5.0 km/h 5.0 km/h 68 % 0.0 mm
23:55 16.5 °C 12.8 °C 1013.8 hPa NE 4.8 km/h 6.4 km/h 79 % 0.0 mm
23:59 17.8 °C 12.1 °C 1013.8 hPa East 3.7 km/h 3.7 km/h 69 % 0.0 mm
Meteo Sesrovires
Elogis d' Weather Underground - 3.25 mb

Guio original per  Jim McMurry - jmcmurry@mwt.net Adaptat per a la plantilla per  Wim van der Kuil - Leuven-Template.eu

Trobareu la nostra informacio del temps tambe a:

Weather Underground

AWEKAS